sensor_id;sensor_type;location;lat;lon;timestamp;P1;durP1;ratioP1;P2;durP2;ratioP2
42282;SDS011;28237;47.954;21.730;2023-11-21T00:02:02;14.27;;;8.73;;
42282;SDS011;28237;47.954;21.730;2023-11-21T00:04:27;15.35;;;9.20;;
42282;SDS011;28237;47.954;21.730;2023-11-21T00:06:52;14.73;;;8.52;;
42282;SDS011;28237;47.954;21.730;2023-11-21T00:09:18;13.45;;;8.57;;
42282;SDS011;28237;47.954;21.730;2023-11-21T00:11:44;13.75;;;8.40;;
42282;SDS011;28237;47.954;21.730;2023-11-21T00:14:12;15.38;;;8.98;;
42282;SDS011;28237;47.954;21.730;2023-11-21T00:16:39;13.82;;;9.32;;
42282;SDS011;28237;47.954;21.730;2023-11-21T00:19:05;16.75;;;9.80;;
42282;SDS011;28237;47.954;21.730;2023-11-21T00:21:30;16.13;;;9.60;;
42282;SDS011;28237;47.954;21.730;2023-11-21T00:23:55;16.17;;;10.27;;
42282;SDS011;28237;47.954;21.730;2023-11-21T00:26:21;19.70;;;9.75;;
42282;SDS011;28237;47.954;21.730;2023-11-21T00:28:46;13.52;;;8.80;;
42282;SDS011;28237;47.954;21.730;2023-11-21T00:31:11;17.77;;;9.80;;
42282;SDS011;28237;47.954;21.730;2023-11-21T00:33:37;14.33;;;9.70;;
42282;SDS011;28237;47.954;21.730;2023-11-21T00:36:02;18.15;;;9.88;;
42282;SDS011;28237;47.954;21.730;2023-11-21T00:38:27;19.60;;;10.15;;
42282;SDS011;28237;47.954;21.730;2023-11-21T00:40:53;13.47;;;9.83;;
42282;SDS011;28237;47.954;21.730;2023-11-21T00:43:21;20.30;;;11.93;;
42282;SDS011;28237;47.954;21.730;2023-11-21T00:45:47;15.77;;;10.65;;
42282;SDS011;28237;47.954;21.730;2023-11-21T00:48:14;18.70;;;10.82;;
42282;SDS011;28237;47.954;21.730;2023-11-21T00:50:39;16.08;;;9.85;;
42282;SDS011;28237;47.954;21.730;2023-11-21T00:53:04;14.67;;;10.03;;
42282;SDS011;28237;47.954;21.730;2023-11-21T00:55:30;15.23;;;10.37;;
42282;SDS011;28237;47.954;21.730;2023-11-21T00:57:55;17.63;;;10.98;;
42282;SDS011;28237;47.954;21.730;2023-11-21T01:00:20;12.68;;;8.90;;
42282;SDS011;28237;47.954;21.730;2023-11-21T01:02:46;14.63;;;9.17;;
42282;SDS011;28237;47.954;21.730;2023-11-21T01:05:12;12.23;;;8.98;;
42282;SDS011;28237;47.954;21.730;2023-11-21T01:07:37;15.63;;;10.35;;
42282;SDS011;28237;47.954;21.730;2023-11-21T01:10:03;16.83;;;10.00;;
42282;SDS011;28237;47.954;21.730;2023-11-21T01:12:33;12.25;;;8.25;;
42282;SDS011;28237;47.954;21.730;2023-11-21T01:14:59;14.05;;;8.70;;
42282;SDS011;28237;47.954;21.730;2023-11-21T01:17:25;12.02;;;8.32;;
42282;SDS011;28237;47.954;21.730;2023-11-21T01:19:51;13.55;;;9.25;;
42282;SDS011;28237;47.954;21.730;2023-11-21T01:22:16;13.68;;;8.30;;
42282;SDS011;28237;47.954;21.730;2023-11-21T01:24:43;14.77;;;9.45;;
42282;SDS011;28237;47.954;21.730;2023-11-21T01:27:08;13.07;;;8.45;;
42282;SDS011;28237;47.954;21.730;2023-11-21T01:29:33;15.27;;;9.30;;
42282;SDS011;28237;47.954;21.730;2023-11-21T01:32:00;16.27;;;9.57;;
42282;SDS011;28237;47.954;21.730;2023-11-21T01:34:26;12.50;;;8.48;;
42282;SDS011;28237;47.954;21.730;2023-11-21T01:36:51;16.50;;;10.27;;
42282;SDS011;28237;47.954;21.730;2023-11-21T01:39:17;16.53;;;8.83;;
42282;SDS011;28237;47.954;21.730;2023-11-21T01:41:48;14.30;;;8.85;;
42282;SDS011;28237;47.954;21.730;2023-11-21T01:44:13;14.80;;;9.20;;
42282;SDS011;28237;47.954;21.730;2023-11-21T01:46:39;12.97;;;8.80;;
42282;SDS011;28237;47.954;21.730;2023-11-21T01:49:04;11.40;;;7.93;;
42282;SDS011;28237;47.954;21.730;2023-11-21T01:51:30;17.20;;;10.00;;
42282;SDS011;28237;47.954;21.730;2023-11-21T01:53:56;15.77;;;9.75;;
42282;SDS011;28237;47.954;21.730;2023-11-21T01:56:21;13.50;;;8.45;;
42282;SDS011;28237;47.954;21.730;2023-11-21T01:58:47;11.68;;;8.82;;
42282;SDS011;28237;47.954;21.730;2023-11-21T02:01:12;13.20;;;9.38;;
42282;SDS011;28237;47.954;21.730;2023-11-21T02:03:37;14.02;;;9.02;;
42282;SDS011;28237;47.954;21.730;2023-11-21T02:06:02;15.45;;;9.07;;
42282;SDS011;28237;47.954;21.730;2023-11-21T02:08:28;17.88;;;9.05;;
42282;SDS011;28237;47.954;21.730;2023-11-21T02:10:53;12.93;;;8.20;;
42282;SDS011;28237;47.954;21.730;2023-11-21T02:13:18;13.43;;;8.63;;
42282;SDS011;28237;47.954;21.730;2023-11-21T02:15:44;14.50;;;8.02;;
42282;SDS011;28237;47.954;21.730;2023-11-21T02:18:09;15.43;;;9.02;;
42282;SDS011;28237;47.954;21.730;2023-11-21T02:20:36;11.65;;;8.25;;
42282;SDS011;28237;47.954;21.730;2023-11-21T02:23:04;13.60;;;8.43;;
42282;SDS011;28237;47.954;21.730;2023-11-21T02:25:31;11.95;;;8.30;;
42282;SDS011;28237;47.954;21.730;2023-11-21T02:27:57;13.07;;;8.25;;
42282;SDS011;28237;47.954;21.730;2023-11-21T02:30:22;15.73;;;9.50;;
42282;SDS011;28237;47.954;21.730;2023-11-21T02:32:48;13.23;;;7.90;;
42282;SDS011;28237;47.954;21.730;2023-11-21T02:35:13;13.48;;;9.00;;
42282;SDS011;28237;47.954;21.730;2023-11-21T02:37:39;14.52;;;9.30;;
42282;SDS011;28237;47.954;21.730;2023-11-21T02:40:06;13.40;;;8.82;;
42282;SDS011;28237;47.954;21.730;2023-11-21T02:42:34;12.43;;;8.32;;
42282;SDS011;28237;47.954;21.730;2023-11-21T02:44:59;9.97;;;7.97;;
42282;SDS011;28237;47.954;21.730;2023-11-21T02:47:24;13.93;;;8.37;;
42282;SDS011;28237;47.954;21.730;2023-11-21T02:49:52;13.05;;;8.50;;
42282;SDS011;28237;47.954;21.730;2023-11-21T02:52:17;12.95;;;8.38;;
42282;SDS011;28237;47.954;21.730;2023-11-21T02:54:44;14.52;;;9.85;;
42282;SDS011;28237;47.954;21.730;2023-11-21T02:57:09;13.40;;;8.90;;
42282;SDS011;28237;47.954;21.730;2023-11-21T02:59:34;15.38;;;9.50;;
42282;SDS011;28237;47.954;21.730;2023-11-21T03:02:00;17.90;;;10.97;;
42282;SDS011;28237;47.954;21.730;2023-11-21T03:04:25;18.20;;;11.43;;
42282;SDS011;28237;47.954;21.730;2023-11-21T03:06:51;20.00;;;11.43;;
42282;SDS011;28237;47.954;21.730;2023-11-21T03:09:16;18.13;;;12.38;;
42282;SDS011;28237;47.954;21.730;2023-11-21T03:11:41;27.77;;;14.88;;
42282;SDS011;28237;47.954;21.730;2023-11-21T03:14:07;25.90;;;15.18;;
42282;SDS011;28237;47.954;21.730;2023-11-21T03:16:32;22.23;;;12.85;;
42282;SDS011;28237;47.954;21.730;2023-11-21T03:18:57;18.60;;;12.43;;
42282;SDS011;28237;47.954;21.730;2023-11-21T03:21:23;20.50;;;12.48;;
42282;SDS011;28237;47.954;21.730;2023-11-21T03:23:49;24.25;;;15.30;;
42282;SDS011;28237;47.954;21.730;2023-11-21T03:26:15;22.98;;;14.23;;
42282;SDS011;28237;47.954;21.730;2023-11-21T03:28:40;22.25;;;14.02;;
42282;SDS011;28237;47.954;21.730;2023-11-21T03:31:05;26.45;;;15.38;;
42282;SDS011;28237;47.954;21.730;2023-11-21T03:33:31;24.42;;;15.52;;
42282;SDS011;28237;47.954;21.730;2023-11-21T03:35:57;25.73;;;16.17;;
42282;SDS011;28237;47.954;21.730;2023-11-21T03:38:22;20.80;;;14.63;;
42282;SDS011;28237;47.954;21.730;2023-11-21T03:40:47;21.23;;;15.13;;
42282;SDS011;28237;47.954;21.730;2023-11-21T03:43:13;22.25;;;14.32;;
42282;SDS011;28237;47.954;21.730;2023-11-21T03:45:38;24.25;;;15.73;;
42282;SDS011;28237;47.954;21.730;2023-11-21T03:48:05;23.58;;;15.25;;
42282;SDS011;28237;47.954;21.730;2023-11-21T03:50:31;22.52;;;15.05;;
42282;SDS011;28237;47.954;21.730;2023-11-21T03:52:56;21.58;;;14.15;;
42282;SDS011;28237;47.954;21.730;2023-11-21T03:55:22;23.02;;;15.25;;
42282;SDS011;28237;47.954;21.730;2023-11-21T03:57:49;28.30;;;16.00;;
42282;SDS011;28237;47.954;21.730;2023-11-21T04:00:14;19.55;;;14.55;;
42282;SDS011;28237;47.954;21.730;2023-11-21T04:02:39;20.80;;;13.57;;
42282;SDS011;28237;47.954;21.730;2023-11-21T04:05:05;21.45;;;13.88;;
42282;SDS011;28237;47.954;21.730;2023-11-21T04:07:32;22.17;;;13.85;;
42282;SDS011;28237;47.954;21.730;2023-11-21T04:09:57;20.48;;;13.32;;
42282;SDS011;28237;47.954;21.730;2023-11-21T04:12:22;17.97;;;13.67;;
42282;SDS011;28237;47.954;21.730;2023-11-21T04:14:48;15.98;;;11.93;;
42282;SDS011;28237;47.954;21.730;2023-11-21T04:17:13;18.95;;;12.25;;
42282;SDS011;28237;47.954;21.730;2023-11-21T04:19:38;20.33;;;13.40;;
42282;SDS011;28237;47.954;21.730;2023-11-21T04:22:03;18.05;;;12.20;;
42282;SDS011;28237;47.954;21.730;2023-11-21T04:24:29;20.50;;;12.60;;
42282;SDS011;28237;47.954;21.730;2023-11-21T04:26:54;20.27;;;12.90;;
42282;SDS011;28237;47.954;21.730;2023-11-21T04:29:19;13.87;;;11.90;;
42282;SDS011;28237;47.954;21.730;2023-11-21T04:31:45;15.20;;;12.00;;
42282;SDS011;28237;47.954;21.730;2023-11-21T04:34:11;16.05;;;11.10;;
42282;SDS011;28237;47.954;21.730;2023-11-21T04:36:36;13.23;;;10.90;;
42282;SDS011;28237;47.954;21.730;2023-11-21T04:39:02;16.13;;;11.45;;
42282;SDS011;28237;47.954;21.730;2023-11-21T04:41:27;15.60;;;10.82;;
42282;SDS011;28237;47.954;21.730;2023-11-21T04:43:52;18.05;;;11.70;;
42282;SDS011;28237;47.954;21.730;2023-11-21T04:46:18;14.55;;;10.77;;
42282;SDS011;28237;47.954;21.730;2023-11-21T04:48:43;20.73;;;13.75;;
42282;SDS011;28237;47.954;21.730;2023-11-21T04:51:09;22.48;;;14.85;;
42282;SDS011;28237;47.954;21.730;2023-11-21T04:53:34;20.55;;;13.55;;
42282;SDS011;28237;47.954;21.730;2023-11-21T04:56:00;24.90;;;14.32;;
42282;SDS011;28237;47.954;21.730;2023-11-21T04:58:25;20.15;;;14.23;;
42282;SDS011;28237;47.954;21.730;2023-11-21T05:00:50;17.90;;;11.90;;
42282;SDS011;28237;47.954;21.730;2023-11-21T05:03:16;21.50;;;13.35;;
42282;SDS011;28237;47.954;21.730;2023-11-21T05:05:41;18.17;;;13.00;;
42282;SDS011;28237;47.954;21.730;2023-11-21T05:08:06;19.10;;;12.68;;
42282;SDS011;28237;47.954;21.730;2023-11-21T05:10:33;20.00;;;14.18;;
42282;SDS011;28237;47.954;21.730;2023-11-21T05:12:59;16.88;;;12.77;;
42282;SDS011;28237;47.954;21.730;2023-11-21T05:15:24;17.77;;;13.25;;
42282;SDS011;28237;47.954;21.730;2023-11-21T05:17:50;20.83;;;12.88;;
42282;SDS011;28237;47.954;21.730;2023-11-21T05:20:17;20.40;;;13.07;;
42282;SDS011;28237;47.954;21.730;2023-11-21T05:22:49;21.42;;;13.88;;
42282;SDS011;28237;47.954;21.730;2023-11-21T05:25:14;22.08;;;14.50;;
42282;SDS011;28237;47.954;21.730;2023-11-21T05:27:40;38.65;;;22.52;;
42282;SDS011;28237;47.954;21.730;2023-11-21T05:30:05;34.47;;;22.47;;
42282;SDS011;28237;47.954;21.730;2023-11-21T05:32:31;33.70;;;20.52;;
42282;SDS011;28237;47.954;21.730;2023-11-21T05:34:57;31.15;;;18.95;;
42282;SDS011;28237;47.954;21.730;2023-11-21T05:37:22;25.20;;;16.83;;
42282;SDS011;28237;47.954;21.730;2023-11-21T05:39:48;22.35;;;14.45;;
42282;SDS011;28237;47.954;21.730;2023-11-21T05:42:13;23.67;;;15.77;;
42282;SDS011;28237;47.954;21.730;2023-11-21T05:44:40;21.60;;;13.18;;
42282;SDS011;28237;47.954;21.730;2023-11-21T05:47:06;18.08;;;11.95;;
42282;SDS011;28237;47.954;21.730;2023-11-21T05:49:32;14.93;;;11.07;;
42282;SDS011;28237;47.954;21.730;2023-11-21T05:51:58;19.98;;;12.13;;
42282;SDS011;28237;47.954;21.730;2023-11-21T05:54:24;24.92;;;15.35;;
42282;SDS011;28237;47.954;21.730;2023-11-21T05:56:50;28.10;;;16.67;;
42282;SDS011;28237;47.954;21.730;2023-11-21T05:59:15;24.75;;;15.85;;
42282;SDS011;28237;47.954;21.730;2023-11-21T06:01:41;22.60;;;15.67;;
42282;SDS011;28237;47.954;21.730;2023-11-21T06:04:06;22.73;;;15.97;;
42282;SDS011;28237;47.954;21.730;2023-11-21T06:06:33;23.73;;;17.08;;
42282;SDS011;28237;47.954;21.730;2023-11-21T06:08:58;22.95;;;15.32;;
42282;SDS011;28237;47.954;21.730;2023-11-21T06:11:23;23.42;;;15.55;;
42282;SDS011;28237;47.954;21.730;2023-11-21T06:13:49;22.45;;;14.32;;
42282;SDS011;28237;47.954;21.730;2023-11-21T06:16:14;22.23;;;14.68;;
42282;SDS011;28237;47.954;21.730;2023-11-21T06:18:42;20.85;;;13.90;;
42282;SDS011;28237;47.954;21.730;2023-11-21T06:21:10;20.92;;;14.48;;
42282;SDS011;28237;47.954;21.730;2023-11-21T06:23:36;25.67;;;15.20;;
42282;SDS011;28237;47.954;21.730;2023-11-21T06:26:01;24.90;;;14.85;;
42282;SDS011;28237;47.954;21.730;2023-11-21T06:28:26;21.98;;;14.05;;
42282;SDS011;28237;47.954;21.730;2023-11-21T06:30:53;24.60;;;16.13;;
42282;SDS011;28237;47.954;21.730;2023-11-21T06:33:18;25.92;;;16.33;;
42282;SDS011;28237;47.954;21.730;2023-11-21T06:35:43;22.95;;;16.45;;
42282;SDS011;28237;47.954;21.730;2023-11-21T06:38:09;23.55;;;16.67;;
42282;SDS011;28237;47.954;21.730;2023-11-21T06:40:35;24.20;;;14.35;;
42282;SDS011;28237;47.954;21.730;2023-11-21T06:43:00;18.60;;;13.03;;
42282;SDS011;28237;47.954;21.730;2023-11-21T06:45:25;18.67;;;12.20;;
42282;SDS011;28237;47.954;21.730;2023-11-21T06:47:51;18.58;;;13.23;;
42282;SDS011;28237;47.954;21.730;2023-11-21T06:50:16;16.13;;;10.80;;
42282;SDS011;28237;47.954;21.730;2023-11-21T06:52:41;19.45;;;13.50;;
42282;SDS011;28237;47.954;21.730;2023-11-21T06:55:08;15.10;;;11.10;;
42282;SDS011;28237;47.954;21.730;2023-11-21T06:57:33;19.80;;;13.18;;
42282;SDS011;28237;47.954;21.730;2023-11-21T06:59:58;14.55;;;10.80;;
42282;SDS011;28237;47.954;21.730;2023-11-21T07:02:24;18.50;;;11.73;;
42282;SDS011;28237;47.954;21.730;2023-11-21T07:04:49;19.20;;;12.38;;
42282;SDS011;28237;47.954;21.730;2023-11-21T07:07:15;20.15;;;13.05;;
42282;SDS011;28237;47.954;21.730;2023-11-21T07:09:40;19.63;;;12.45;;
42282;SDS011;28237;47.954;21.730;2023-11-21T07:12:05;21.08;;;13.30;;
42282;SDS011;28237;47.954;21.730;2023-11-21T07:14:33;17.83;;;11.80;;
42282;SDS011;28237;47.954;21.730;2023-11-21T07:16:58;20.80;;;13.00;;
42282;SDS011;28237;47.954;21.730;2023-11-21T07:19:23;16.00;;;12.23;;
42282;SDS011;28237;47.954;21.730;2023-11-21T07:21:49;18.95;;;12.80;;
42282;SDS011;28237;47.954;21.730;2023-11-21T07:24:16;19.60;;;11.82;;
42282;SDS011;28237;47.954;21.730;2023-11-21T07:26:41;24.33;;;13.18;;
42282;SDS011;28237;47.954;21.730;2023-11-21T07:29:07;18.57;;;12.80;;
42282;SDS011;28237;47.954;21.730;2023-11-21T07:31:32;21.73;;;12.32;;
42282;SDS011;28237;47.954;21.730;2023-11-21T07:33:59;17.13;;;11.70;;
42282;SDS011;28237;47.954;21.730;2023-11-21T07:36:24;16.92;;;11.73;;
42282;SDS011;28237;47.954;21.730;2023-11-21T07:38:50;15.73;;;11.10;;
42282;SDS011;28237;47.954;21.730;2023-11-21T07:41:16;13.63;;;10.35;;
42282;SDS011;28237;47.954;21.730;2023-11-21T07:43:42;15.00;;;10.18;;
42282;SDS011;28237;47.954;21.730;2023-11-21T07:46:08;16.40;;;11.45;;
42282;SDS011;28237;47.954;21.730;2023-11-21T07:48:34;18.40;;;11.50;;
42282;SDS011;28237;47.954;21.730;2023-11-21T07:51:00;11.27;;;9.50;;
42282;SDS011;28237;47.954;21.730;2023-11-21T07:53:25;18.50;;;11.20;;
42282;SDS011;28237;47.954;21.730;2023-11-21T07:55:53;15.27;;;10.88;;
42282;SDS011;28237;47.954;21.730;2023-11-21T07:58:19;13.82;;;9.70;;
42282;SDS011;28237;47.954;21.730;2023-11-21T08:00:44;14.38;;;9.68;;
42282;SDS011;28237;47.954;21.730;2023-11-21T08:03:09;11.70;;;9.20;;
42282;SDS011;28237;47.954;21.730;2023-11-21T08:05:36;15.13;;;10.10;;
42282;SDS011;28237;47.954;21.730;2023-11-21T08:08:01;18.45;;;13.10;;
42282;SDS011;28237;47.954;21.730;2023-11-21T08:10:27;19.67;;;13.47;;
42282;SDS011;28237;47.954;21.730;2023-11-21T08:12:52;18.73;;;11.45;;
42282;SDS011;28237;47.954;21.730;2023-11-21T08:15:18;16.20;;;9.68;;
42282;SDS011;28237;47.954;21.730;2023-11-21T08:17:44;18.02;;;11.15;;
42282;SDS011;28237;47.954;21.730;2023-11-21T08:20:09;18.17;;;11.00;;
42282;SDS011;28237;47.954;21.730;2023-11-21T08:22:36;18.25;;;12.13;;
42282;SDS011;28237;47.954;21.730;2023-11-21T08:25:01;16.98;;;10.77;;
42282;SDS011;28237;47.954;21.730;2023-11-21T08:27:28;15.80;;;11.68;;
42282;SDS011;28237;47.954;21.730;2023-11-21T08:29:54;16.83;;;11.00;;
42282;SDS011;28237;47.954;21.730;2023-11-21T08:32:19;19.02;;;11.13;;
42282;SDS011;28237;47.954;21.730;2023-11-21T08:34:45;22.52;;;12.02;;
42282;SDS011;28237;47.954;21.730;2023-11-21T08:37:10;19.65;;;12.25;;
42282;SDS011;28237;47.954;21.730;2023-11-21T08:39:36;16.55;;;11.07;;
42282;SDS011;28237;47.954;21.730;2023-11-21T08:42:02;18.80;;;12.07;;
42282;SDS011;28237;47.954;21.730;2023-11-21T08:44:27;21.75;;;13.27;;
42282;SDS011;28237;47.954;21.730;2023-11-21T08:46:53;20.43;;;13.20;;
42282;SDS011;28237;47.954;21.730;2023-11-21T08:49:18;22.75;;;14.23;;
42282;SDS011;28237;47.954;21.730;2023-11-21T08:51:44;22.30;;;14.70;;
42282;SDS011;28237;47.954;21.730;2023-11-21T08:54:09;19.25;;;12.13;;
42282;SDS011;28237;47.954;21.730;2023-11-21T08:56:35;24.00;;;13.30;;
42282;SDS011;28237;47.954;21.730;2023-11-21T08:59:00;25.02;;;13.55;;
42282;SDS011;28237;47.954;21.730;2023-11-21T09:01:27;23.67;;;13.88;;
42282;SDS011;28237;47.954;21.730;2023-11-21T09:03:52;24.92;;;14.18;;
42282;SDS011;28237;47.954;21.730;2023-11-21T09:06:18;23.65;;;14.10;;
42282;SDS011;28237;47.954;21.730;2023-11-21T09:08:43;22.83;;;15.13;;
42282;SDS011;28237;47.954;21.730;2023-11-21T09:11:08;23.50;;;13.90;;
42282;SDS011;28237;47.954;21.730;2023-11-21T09:13:34;26.70;;;14.10;;
42282;SDS011;28237;47.954;21.730;2023-11-21T09:15:59;26.02;;;13.82;;
42282;SDS011;28237;47.954;21.730;2023-11-21T09:18:25;23.58;;;13.88;;
42282;SDS011;28237;47.954;21.730;2023-11-21T09:20:50;22.10;;;13.65;;
42282;SDS011;28237;47.954;21.730;2023-11-21T09:23:15;20.48;;;12.32;;
42282;SDS011;28237;47.954;21.730;2023-11-21T09:25:40;24.00;;;12.38;;
42282;SDS011;28237;47.954;21.730;2023-11-21T09:28:06;20.52;;;13.55;;
42282;SDS011;28237;47.954;21.730;2023-11-21T09:30:34;19.63;;;12.48;;
42282;SDS011;28237;47.954;21.730;2023-11-21T09:33:00;24.15;;;13.88;;
42282;SDS011;28237;47.954;21.730;2023-11-21T09:35:26;21.05;;;13.48;;
42282;SDS011;28237;47.954;21.730;2023-11-21T09:37:53;25.00;;;13.90;;
42282;SDS011;28237;47.954;21.730;2023-11-21T09:40:20;25.83;;;13.52;;
42282;SDS011;28237;47.954;21.730;2023-11-21T09:42:56;22.83;;;14.95;;
42282;SDS011;28237;47.954;21.730;2023-11-21T09:45:28;24.50;;;14.52;;
42282;SDS011;28237;47.954;21.730;2023-11-21T09:47:57;40.35;;;22.05;;
42282;SDS011;28237;47.954;21.730;2023-11-21T09:50:22;29.42;;;17.05;;
42282;SDS011;28237;47.954;21.730;2023-11-21T09:52:51;30.73;;;16.65;;
42282;SDS011;28237;47.954;21.730;2023-11-21T09:55:19;26.10;;;15.00;;
42282;SDS011;28237;47.954;21.730;2023-11-21T09:57:46;24.67;;;15.07;;
42282;SDS011;28237;47.954;21.730;2023-11-21T10:00:13;29.00;;;15.88;;
42282;SDS011;28237;47.954;21.730;2023-11-21T10:02:42;31.45;;;15.88;;
42282;SDS011;28237;47.954;21.730;2023-11-21T10:05:08;24.00;;;15.63;;
42282;SDS011;28237;47.954;21.730;2023-11-21T10:07:36;29.40;;;16.08;;
42282;SDS011;28237;47.954;21.730;2023-11-21T10:10:02;31.13;;;17.35;;
42282;SDS011;28237;47.954;21.730;2023-11-21T10:12:28;33.63;;;17.75;;
42282;SDS011;28237;47.954;21.730;2023-11-21T10:14:54;27.00;;;16.63;;
42282;SDS011;28237;47.954;21.730;2023-11-21T10:17:23;24.35;;;16.10;;
42282;SDS011;28237;47.954;21.730;2023-11-21T10:19:49;31.98;;;17.65;;
42282;SDS011;28237;47.954;21.730;2023-11-21T10:22:15;26.55;;;16.85;;
42282;SDS011;28237;47.954;21.730;2023-11-21T10:24:41;26.40;;;15.05;;
42282;SDS011;28237;47.954;21.730;2023-11-21T10:27:08;26.90;;;18.27;;
42282;SDS011;28237;47.954;21.730;2023-11-21T10:29:33;23.00;;;14.95;;
42282;SDS011;28237;47.954;21.730;2023-11-21T10:32:01;21.35;;;15.02;;
42282;SDS011;28237;47.954;21.730;2023-11-21T10:34:27;27.02;;;15.50;;
42282;SDS011;28237;47.954;21.730;2023-11-21T10:36:52;18.88;;;13.13;;
42282;SDS011;28237;47.954;21.730;2023-11-21T10:39:18;21.80;;;14.13;;
42282;SDS011;28237;47.954;21.730;2023-11-21T10:41:44;25.30;;;14.60;;
42282;SDS011;28237;47.954;21.730;2023-11-21T10:44:11;20.70;;;12.55;;
42282;SDS011;28237;47.954;21.730;2023-11-21T10:46:36;20.83;;;13.15;;
42282;SDS011;28237;47.954;21.730;2023-11-21T10:49:01;24.45;;;14.85;;
42282;SDS011;28237;47.954;21.730;2023-11-21T10:51:27;21.50;;;14.15;;
42282;SDS011;28237;47.954;21.730;2023-11-21T10:53:53;17.98;;;12.30;;
42282;SDS011;28237;47.954;21.730;2023-11-21T10:56:19;23.65;;;13.40;;
42282;SDS011;28237;47.954;21.730;2023-11-21T10:58:51;24.60;;;14.25;;
42282;SDS011;28237;47.954;21.730;2023-11-21T11:01:17;25.17;;;14.95;;
42282;SDS011;28237;47.954;21.730;2023-11-21T11:03:43;26.17;;;14.15;;
42282;SDS011;28237;47.954;21.730;2023-11-21T11:06:09;20.45;;;13.38;;
42282;SDS011;28237;47.954;21.730;2023-11-21T11:08:39;21.95;;;13.40;;
42282;SDS011;28237;47.954;21.730;2023-11-21T11:11:05;23.10;;;14.75;;
42282;SDS011;28237;47.954;21.730;2023-11-21T11:13:30;19.27;;;12.80;;
42282;SDS011;28237;47.954;21.730;2023-11-21T11:15:58;20.13;;;13.63;;
42282;SDS011;28237;47.954;21.730;2023-11-21T11:18:24;22.08;;;13.20;;
42282;SDS011;28237;47.954;21.730;2023-11-21T11:20:50;21.73;;;13.32;;
42282;SDS011;28237;47.954;21.730;2023-11-21T11:31:33;28.67;;;15.40;;
42282;SDS011;28237;47.954;21.730;2023-11-21T11:36:46;23.42;;;14.85;;
42282;SDS011;28237;47.954;21.730;2023-11-21T11:41:57;22.95;;;16.20;;
42282;SDS011;28237;47.954;21.730;2023-11-21T11:47:20;22.73;;;15.05;;
42282;SDS011;28237;47.954;21.730;2023-11-21T11:50:02;24.77;;;15.80;;
42282;SDS011;28237;47.954;21.730;2023-11-21T11:52:47;26.42;;;15.93;;
42282;SDS011;28237;47.954;21.730;2023-11-21T11:55:14;26.98;;;17.05;;
42282;SDS011;28237;47.954;21.730;2023-11-21T11:57:41;28.02;;;16.88;;
42282;SDS011;28237;47.954;21.730;2023-11-21T12:02:42;32.80;;;18.10;;
42282;SDS011;28237;47.954;21.730;2023-11-21T12:05:10;32.88;;;17.25;;
42282;SDS011;28237;47.954;21.730;2023-11-21T12:07:46;29.70;;;17.08;;
42282;SDS011;28237;47.954;21.730;2023-11-21T12:10:15;28.88;;;17.40;;
42282;SDS011;28237;47.954;21.730;2023-11-21T12:12:46;29.02;;;17.70;;
42282;SDS011;28237;47.954;21.730;2023-11-21T12:15:12;29.67;;;18.63;;
42282;SDS011;28237;47.954;21.730;2023-11-21T12:17:38;24.73;;;16.52;;
42282;SDS011;28237;47.954;21.730;2023-11-21T12:20:04;30.00;;;18.00;;
42282;SDS011;28237;47.954;21.730;2023-11-21T12:22:30;31.02;;;17.83;;
42282;SDS011;28237;47.954;21.730;2023-11-21T12:24:56;29.08;;;17.15;;
42282;SDS011;28237;47.954;21.730;2023-11-21T12:27:21;29.67;;;18.95;;
42282;SDS011;28237;47.954;21.730;2023-11-21T12:29:46;28.10;;;17.88;;
42282;SDS011;28237;47.954;21.730;2023-11-21T12:32:11;27.60;;;17.40;;
42282;SDS011;28237;47.954;21.730;2023-11-21T12:34:40;26.52;;;16.10;;
42282;SDS011;28237;47.954;21.730;2023-11-21T12:37:05;32.33;;;17.23;;
42282;SDS011;28237;47.954;21.730;2023-11-21T12:39:31;31.40;;;16.57;;
42282;SDS011;28237;47.954;21.730;2023-11-21T12:41:56;32.00;;;18.33;;
42282;SDS011;28237;47.954;21.730;2023-11-21T12:44:22;29.50;;;17.05;;
42282;SDS011;28237;47.954;21.730;2023-11-21T12:46:49;30.17;;;17.95;;
42282;SDS011;28237;47.954;21.730;2023-11-21T12:49:14;31.73;;;17.35;;
42282;SDS011;28237;47.954;21.730;2023-11-21T12:51:43;29.73;;;18.60;;
42282;SDS011;28237;47.954;21.730;2023-11-21T12:54:09;31.38;;;18.35;;
42282;SDS011;28237;47.954;21.730;2023-11-21T12:56:38;28.17;;;18.20;;
42282;SDS011;28237;47.954;21.730;2023-11-21T12:59:03;27.73;;;17.52;;
42282;SDS011;28237;47.954;21.730;2023-11-21T13:01:29;26.30;;;16.63;;
42282;SDS011;28237;47.954;21.730;2023-11-21T13:03:59;32.80;;;19.40;;
42282;SDS011;28237;47.954;21.730;2023-11-21T13:06:25;27.08;;;16.40;;
42282;SDS011;28237;47.954;21.730;2023-11-21T13:08:51;31.20;;;18.45;;
42282;SDS011;28237;47.954;21.730;2023-11-21T13:11:16;27.65;;;18.90;;
42282;SDS011;28237;47.954;21.730;2023-11-21T13:13:42;31.20;;;17.20;;
42282;SDS011;28237;47.954;21.730;2023-11-21T13:16:11;28.05;;;17.52;;
42282;SDS011;28237;47.954;21.730;2023-11-21T13:18:37;27.98;;;17.05;;
42282;SDS011;28237;47.954;21.730;2023-11-21T13:21:07;30.33;;;17.67;;
42282;SDS011;28237;47.954;21.730;2023-11-21T13:23:38;35.10;;;19.08;;
42282;SDS011;28237;47.954;21.730;2023-11-21T13:26:04;28.85;;;20.27;;
42282;SDS011;28237;47.954;21.730;2023-11-21T13:28:29;30.85;;;17.70;;
42282;SDS011;28237;47.954;21.730;2023-11-21T13:30:58;32.58;;;17.63;;
42282;SDS011;28237;47.954;21.730;2023-11-21T13:33:27;27.85;;;17.10;;
42282;SDS011;28237;47.954;21.730;2023-11-21T13:35:53;27.38;;;16.95;;
42282;SDS011;28237;47.954;21.730;2023-11-21T13:38:20;43.30;;;23.15;;
42282;SDS011;28237;47.954;21.730;2023-11-21T13:40:51;35.33;;;20.83;;
42282;SDS011;28237;47.954;21.730;2023-11-21T13:43:21;31.25;;;19.25;;
42282;SDS011;28237;47.954;21.730;2023-11-21T13:45:47;31.33;;;17.67;;
42282;SDS011;28237;47.954;21.730;2023-11-21T13:48:15;28.88;;;17.05;;
42282;SDS011;28237;47.954;21.730;2023-11-21T13:50:44;28.17;;;18.05;;
42282;SDS011;28237;47.954;21.730;2023-11-21T13:53:20;31.27;;;16.63;;
42282;SDS011;28237;47.954;21.730;2023-11-21T13:55:48;32.95;;;16.08;;
42282;SDS011;28237;47.954;21.730;2023-11-21T13:58:14;33.00;;;16.83;;
42282;SDS011;28237;47.954;21.730;2023-11-21T14:00:44;37.92;;;17.83;;
42282;SDS011;28237;47.954;21.730;2023-11-21T14:03:14;30.77;;;18.35;;
42282;SDS011;28237;47.954;21.730;2023-11-21T14:05:45;31.67;;;16.00;;
42282;SDS011;28237;47.954;21.730;2023-11-21T14:08:18;27.45;;;16.52;;
42282;SDS011;28237;47.954;21.730;2023-11-21T14:10:45;29.60;;;14.98;;
42282;SDS011;28237;47.954;21.730;2023-11-21T14:13:15;23.50;;;14.13;;
42282;SDS011;28237;47.954;21.730;2023-11-21T14:15:41;28.33;;;15.20;;
42282;SDS011;28237;47.954;21.730;2023-11-21T14:18:10;26.38;;;15.55;;
42282;SDS011;28237;47.954;21.730;2023-11-21T14:20:36;27.67;;;14.38;;
42282;SDS011;28237;47.954;21.730;2023-11-21T14:23:02;27.67;;;14.68;;
42282;SDS011;28237;47.954;21.730;2023-11-21T14:25:29;24.02;;;14.52;;